sensor_id;sensor_type;location;lat;lon;timestamp;temperature;humidity
70851;DHT22;58475;49.662;9.636;2023-11-21T00:02:25;9.20;94.28
70851;DHT22;58475;49.662;9.636;2023-11-21T00:04:50;9.30;94.09
70851;DHT22;58475;49.662;9.636;2023-11-21T00:07:16;9.21;94.17
70851;DHT22;58475;49.662;9.636;2023-11-21T00:09:42;9.13;94.51
70851;DHT22;58475;49.662;9.636;2023-11-21T00:12:08;9.23;94.37
70851;DHT22;58475;49.662;9.636;2023-11-21T00:14:39;9.13;94.63
70851;DHT22;58475;49.662;9.636;2023-11-21T00:17:05;9.14;94.81
70851;DHT22;58475;49.662;9.636;2023-11-21T00:19:31;9.46;94.02
70851;DHT22;58475;49.662;9.636;2023-11-21T00:21:57;9.46;93.45
70851;DHT22;58475;49.662;9.636;2023-11-21T00:24:23;9.51;93.29
70851;DHT22;58475;49.662;9.636;2023-11-21T00:26:50;9.18;94.18
70851;DHT22;58475;49.662;9.636;2023-11-21T00:29:15;9.25;94.25
70851;DHT22;58475;49.662;9.636;2023-11-21T00:31:43;9.27;94.32
70851;DHT22;58475;49.662;9.636;2023-11-21T00:34:11;9.08;94.68
70851;DHT22;58475;49.662;9.636;2023-11-21T00:36:37;9.07;95.03
70851;DHT22;58475;49.662;9.636;2023-11-21T00:39:03;8.97;95.32
70851;DHT22;58475;49.662;9.636;2023-11-21T00:41:29;9.21;94.90
70851;DHT22;58475;49.662;9.636;2023-11-21T00:43:54;9.30;93.89
70851;DHT22;58475;49.662;9.636;2023-11-21T00:46:21;9.14;94.59
70851;DHT22;58475;49.662;9.636;2023-11-21T00:48:47;9.15;94.63
70851;DHT22;58475;49.662;9.636;2023-11-21T00:51:13;9.10;94.61
70851;DHT22;58475;49.662;9.636;2023-11-21T00:53:38;9.18;94.50
70851;DHT22;58475;49.662;9.636;2023-11-21T00:56:04;9.18;94.44
70851;DHT22;58475;49.662;9.636;2023-11-21T00:58:30;9.24;94.34
70851;DHT22;58475;49.662;9.636;2023-11-21T01:00:55;9.01;95.03
70851;DHT22;58475;49.662;9.636;2023-11-21T01:03:21;9.13;94.97
70851;DHT22;58475;49.662;9.636;2023-11-21T01:05:47;9.21;94.89
70851;DHT22;58475;49.662;9.636;2023-11-21T01:08:14;9.27;94.36
70851;DHT22;58475;49.662;9.636;2023-11-21T01:10:40;9.08;94.83
70851;DHT22;58475;49.662;9.636;2023-11-21T01:13:05;9.01;95.08
70851;DHT22;58475;49.662;9.636;2023-11-21T01:15:31;9.07;95.24
70851;DHT22;58475;49.662;9.636;2023-11-21T01:17:56;8.99;95.34
70851;DHT22;58475;49.662;9.636;2023-11-21T01:20:21;8.99;95.52
70851;DHT22;58475;49.662;9.636;2023-11-21T01:22:47;8.97;95.15
70851;DHT22;58475;49.662;9.636;2023-11-21T01:25:14;8.93;95.30
70851;DHT22;58475;49.662;9.636;2023-11-21T01:27:42;8.97;95.04
70851;DHT22;58475;49.662;9.636;2023-11-21T01:30:09;9.00;94.92
70851;DHT22;58475;49.662;9.636;2023-11-21T01:32:37;9.04;94.74
70851;DHT22;58475;49.662;9.636;2023-11-21T01:35:04;9.10;94.26
70851;DHT22;58475;49.662;9.636;2023-11-21T01:37:31;9.10;94.51
70851;DHT22;58475;49.662;9.636;2023-11-21T01:39:56;9.00;94.50
70851;DHT22;58475;49.662;9.636;2023-11-21T01:42:22;9.34;93.56
70851;DHT22;58475;49.662;9.636;2023-11-21T01:44:47;9.24;93.56
70851;DHT22;58475;49.662;9.636;2023-11-21T01:47:14;9.25;93.82
70851;DHT22;58475;49.662;9.636;2023-11-21T01:49:43;9.14;94.05
70851;DHT22;58475;49.662;9.636;2023-11-21T01:52:09;9.14;94.15
70851;DHT22;58475;49.662;9.636;2023-11-21T01:54:36;9.21;93.85
70851;DHT22;58475;49.662;9.636;2023-11-21T01:57:03;9.18;93.68
70851;DHT22;58475;49.662;9.636;2023-11-21T01:59:38;9.48;92.80
70851;DHT22;58475;49.662;9.636;2023-11-21T02:02:06;9.38;93.12
70851;DHT22;58475;49.662;9.636;2023-11-21T02:04:34;9.36;93.45
70851;DHT22;58475;49.662;9.636;2023-11-21T02:07:00;9.27;93.39
70851;DHT22;58475;49.662;9.636;2023-11-21T02:09:28;9.27;93.81
70851;DHT22;58475;49.662;9.636;2023-11-21T02:11:58;9.24;93.94
70851;DHT22;58475;49.662;9.636;2023-11-21T02:14:27;9.36;93.51
70851;DHT22;58475;49.662;9.636;2023-11-21T02:16:54;9.23;93.84
70851;DHT22;58475;49.662;9.636;2023-11-21T02:19:21;9.14;94.43
70851;DHT22;58475;49.662;9.636;2023-11-21T02:21:53;9.18;94.54
70851;DHT22;58475;49.662;9.636;2023-11-21T02:24:22;9.24;94.20
70851;DHT22;58475;49.662;9.636;2023-11-21T02:26:48;9.18;94.48
70851;DHT22;58475;49.662;9.636;2023-11-21T02:29:17;9.18;94.56
70851;DHT22;58475;49.662;9.636;2023-11-21T02:31:45;9.13;94.53
70851;DHT22;58475;49.662;9.636;2023-11-21T02:34:17;9.07;94.80
70851;DHT22;58475;49.662;9.636;2023-11-21T02:36:45;9.08;94.80
70851;DHT22;58475;49.662;9.636;2023-11-21T02:39:11;9.15;94.89
70851;DHT22;58475;49.662;9.636;2023-11-21T02:41:39;9.11;94.69
70851;DHT22;58475;49.662;9.636;2023-11-21T02:44:06;9.13;94.78
70851;DHT22;58475;49.662;9.636;2023-11-21T02:46:33;9.11;95.09
70851;DHT22;58475;49.662;9.636;2023-11-21T02:49:03;9.17;95.05
70851;DHT22;58475;49.662;9.636;2023-11-21T02:51:29;9.17;94.85
70851;DHT22;58475;49.662;9.636;2023-11-21T02:53:55;9.07;95.23
70851;DHT22;58475;49.662;9.636;2023-11-21T02:56:26;9.03;95.35
70851;DHT22;58475;49.662;9.636;2023-11-21T02:58:55;9.08;95.25
70851;DHT22;58475;49.662;9.636;2023-11-21T03:01:20;9.21;95.12
70851;DHT22;58475;49.662;9.636;2023-11-21T03:03:46;9.04;95.71
70851;DHT22;58475;49.662;9.636;2023-11-21T03:06:13;9.07;95.49
70851;DHT22;58475;49.662;9.636;2023-11-21T03:08:38;8.99;95.97
70851;DHT22;58475;49.662;9.636;2023-11-21T03:11:04;9.00;96.20
70851;DHT22;58475;49.662;9.636;2023-11-21T03:13:29;9.01;96.42
70851;DHT22;58475;49.662;9.636;2023-11-21T03:15:54;9.18;96.06
70851;DHT22;58475;49.662;9.636;2023-11-21T03:18:21;9.21;95.32
70851;DHT22;58475;49.662;9.636;2023-11-21T03:20:47;9.15;95.68
70851;DHT22;58475;49.662;9.636;2023-11-21T03:23:12;9.18;95.54
70851;DHT22;58475;49.662;9.636;2023-11-21T03:25:38;9.11;95.82
70851;DHT22;58475;49.662;9.636;2023-11-21T03:28:03;9.11;95.89
70851;DHT22;58475;49.662;9.636;2023-11-21T03:30:29;9.23;95.83
70851;DHT22;58475;49.662;9.636;2023-11-21T03:32:54;9.13;95.77
70851;DHT22;58475;49.662;9.636;2023-11-21T03:35:20;9.08;96.15
70851;DHT22;58475;49.662;9.636;2023-11-21T03:37:49;8.99;96.56
70851;DHT22;58475;49.662;9.636;2023-11-21T03:40:14;9.15;96.44
70851;DHT22;58475;49.662;9.636;2023-11-21T03:42:40;9.24;95.94
70851;DHT22;58475;49.662;9.636;2023-11-21T03:45:06;9.11;95.89
70851;DHT22;58475;49.662;9.636;2023-11-21T03:47:32;9.10;96.36
70851;DHT22;58475;49.662;9.636;2023-11-21T03:49:57;9.14;96.51
70851;DHT22;58475;49.662;9.636;2023-11-21T03:52:24;9.10;96.42
70851;DHT22;58475;49.662;9.636;2023-11-21T03:54:49;9.08;96.48
70851;DHT22;58475;49.662;9.636;2023-11-21T03:57:15;9.05;96.58
70851;DHT22;58475;49.662;9.636;2023-11-21T03:59:42;8.96;96.91
70851;DHT22;58475;49.662;9.636;2023-11-21T04:02:08;9.00;97.20
70851;DHT22;58475;49.662;9.636;2023-11-21T04:04:34;9.04;97.08
70851;DHT22;58475;49.662;9.636;2023-11-21T04:06:59;9.03;97.09
70851;DHT22;58475;49.662;9.636;2023-11-21T04:09:25;9.08;97.09
70851;DHT22;58475;49.662;9.636;2023-11-21T04:11:53;9.10;97.05
70851;DHT22;58475;49.662;9.636;2023-11-21T04:14:20;8.96;97.37
70851;DHT22;58475;49.662;9.636;2023-11-21T04:16:45;8.99;97.35
70851;DHT22;58475;49.662;9.636;2023-11-21T04:19:11;9.04;97.22
70851;DHT22;58475;49.662;9.636;2023-11-21T04:21:40;9.04;96.99
70851;DHT22;58475;49.662;9.636;2023-11-21T04:24:06;9.10;97.01
70851;DHT22;58475;49.662;9.636;2023-11-21T04:26:31;9.17;96.82
70851;DHT22;58475;49.662;9.636;2023-11-21T04:28:56;9.30;96.12
70851;DHT22;58475;49.662;9.636;2023-11-21T04:31:22;9.21;96.15
70851;DHT22;58475;49.662;9.636;2023-11-21T04:33:47;9.15;96.17
70851;DHT22;58475;49.662;9.636;2023-11-21T04:36:12;9.05;96.37
70851;DHT22;58475;49.662;9.636;2023-11-21T04:38:38;9.04;96.76
70851;DHT22;58475;49.662;9.636;2023-11-21T04:41:03;9.04;96.51
70851;DHT22;58475;49.662;9.636;2023-11-21T04:43:29;9.03;96.58
70851;DHT22;58475;49.662;9.636;2023-11-21T04:45:54;9.01;96.80
70851;DHT22;58475;49.662;9.636;2023-11-21T04:48:20;9.01;96.74
70851;DHT22;58475;49.662;9.636;2023-11-21T04:50:45;9.07;96.86
70851;DHT22;58475;49.662;9.636;2023-11-21T04:53:11;9.04;96.63
70851;DHT22;58475;49.662;9.636;2023-11-21T04:55:39;9.04;96.70
70851;DHT22;58475;49.662;9.636;2023-11-21T04:58:04;9.03;96.62
70851;DHT22;58475;49.662;9.636;2023-11-21T05:00:30;8.94;97.12
70851;DHT22;58475;49.662;9.636;2023-11-21T05:02:55;9.11;96.29
70851;DHT22;58475;49.662;9.636;2023-11-21T05:05:20;9.00;96.57
70851;DHT22;58475;49.662;9.636;2023-11-21T05:07:46;9.00;96.83
70851;DHT22;58475;49.662;9.636;2023-11-21T05:10:11;9.03;96.75
70851;DHT22;58475;49.662;9.636;2023-11-21T05:12:37;9.14;96.53
70851;DHT22;58475;49.662;9.636;2023-11-21T05:15:07;9.46;95.37
70851;DHT22;58475;49.662;9.636;2023-11-21T05:17:37;9.48;94.99
70851;DHT22;58475;49.662;9.636;2023-11-21T05:20:04;9.44;95.01
70851;DHT22;58475;49.662;9.636;2023-11-21T05:22:34;9.27;95.48
70851;DHT22;58475;49.662;9.636;2023-11-21T05:24:59;9.14;95.84
70851;DHT22;58475;49.662;9.636;2023-11-21T05:27:25;9.14;96.18
70851;DHT22;58475;49.662;9.636;2023-11-21T05:29:50;8.99;96.39
70851;DHT22;58475;49.662;9.636;2023-11-21T05:32:15;9.04;96.51
70851;DHT22;58475;49.662;9.636;2023-11-21T05:34:42;9.10;96.39
70851;DHT22;58475;49.662;9.636;2023-11-21T05:37:08;8.97;96.60
70851;DHT22;58475;49.662;9.636;2023-11-21T05:39:33;8.94;96.74
70851;DHT22;58475;49.662;9.636;2023-11-21T05:41:59;8.93;96.83
70851;DHT22;58475;49.662;9.636;2023-11-21T05:44:25;9.00;96.68
70851;DHT22;58475;49.662;9.636;2023-11-21T05:46:50;8.99;96.65
70851;DHT22;58475;49.662;9.636;2023-11-21T05:49:16;8.94;96.78
70851;DHT22;58475;49.662;9.636;2023-11-21T05:51:41;8.85;97.19
70851;DHT22;58475;49.662;9.636;2023-11-21T05:54:07;8.83;97.49
70851;DHT22;58475;49.662;9.636;2023-11-21T05:56:33;8.91;97.26
70851;DHT22;58475;49.662;9.636;2023-11-21T05:58:58;9.03;96.81
70851;DHT22;58475;49.662;9.636;2023-11-21T06:01:25;9.05;96.57
70851;DHT22;58475;49.662;9.636;2023-11-21T06:03:53;9.00;96.64
70851;DHT22;58475;49.662;9.636;2023-11-21T06:06:19;9.18;96.16
70851;DHT22;58475;49.662;9.636;2023-11-21T06:08:45;9.34;95.51
70851;DHT22;58475;49.662;9.636;2023-11-21T06:11:10;9.20;95.53
70851;DHT22;58475;49.662;9.636;2023-11-21T06:13:36;9.21;95.72
70851;DHT22;58475;49.662;9.636;2023-11-21T06:16:02;9.08;96.34
70851;DHT22;58475;49.662;9.636;2023-11-21T06:18:27;9.14;96.31
70851;DHT22;58475;49.662;9.636;2023-11-21T06:20:53;9.04;96.37
70851;DHT22;58475;49.662;9.636;2023-11-21T06:23:18;9.07;96.45
70851;DHT22;58475;49.662;9.636;2023-11-21T06:25:43;9.07;96.40
70851;DHT22;58475;49.662;9.636;2023-11-21T06:28:09;9.07;96.35
70851;DHT22;58475;49.662;9.636;2023-11-21T06:30:35;9.18;96.15
70851;DHT22;58475;49.662;9.636;2023-11-21T06:33:00;9.17;96.18
70851;DHT22;58475;49.662;9.636;2023-11-21T06:35:26;8.99;96.50
70851;DHT22;58475;49.662;9.636;2023-11-21T06:37:54;8.97;96.60
70851;DHT22;58475;49.662;9.636;2023-11-21T06:40:20;8.97;96.73
70851;DHT22;58475;49.662;9.636;2023-11-21T06:42:45;8.85;97.18
70851;DHT22;58475;49.662;9.636;2023-11-21T06:45:12;8.99;97.27
70851;DHT22;58475;49.662;9.636;2023-11-21T06:47:38;9.03;96.69
70851;DHT22;58475;49.662;9.636;2023-11-21T06:50:03;8.99;96.93
70851;DHT22;58475;49.662;9.636;2023-11-21T06:52:29;9.01;97.05
70851;DHT22;58475;49.662;9.636;2023-11-21T06:54:55;8.99;96.99
70851;DHT22;58475;49.662;9.636;2023-11-21T06:57:20;9.01;97.19
70851;DHT22;58475;49.662;9.636;2023-11-21T06:59:45;8.96;97.24
70851;DHT22;58475;49.662;9.636;2023-11-21T07:02:11;9.00;97.09
70851;DHT22;58475;49.662;9.636;2023-11-21T07:04:36;8.94;97.33
70851;DHT22;58475;49.662;9.636;2023-11-21T07:07:02;9.07;97.37
70851;DHT22;58475;49.662;9.636;2023-11-21T07:09:28;9.01;97.30
70851;DHT22;58475;49.662;9.636;2023-11-21T07:11:54;9.01;97.37
70851;DHT22;58475;49.662;9.636;2023-11-21T07:14:20;9.05;97.36
70851;DHT22;58475;49.662;9.636;2023-11-21T07:16:46;9.03;97.38
70851;DHT22;58475;49.662;9.636;2023-11-21T07:19:12;9.05;97.31
70851;DHT22;58475;49.662;9.636;2023-11-21T07:21:38;9.15;97.23
70851;DHT22;58475;49.662;9.636;2023-11-21T07:24:07;9.31;96.24
70851;DHT22;58475;49.662;9.636;2023-11-21T07:26:33;9.32;96.33
70851;DHT22;58475;49.662;9.636;2023-11-21T07:29:00;9.13;96.76
70851;DHT22;58475;49.662;9.636;2023-11-21T07:31:25;9.20;97.04
70851;DHT22;58475;49.662;9.636;2023-11-21T07:33:51;9.11;97.44
70851;DHT22;58475;49.662;9.636;2023-11-21T07:36:17;9.38;96.49
70851;DHT22;58475;49.662;9.636;2023-11-21T07:38:44;9.52;95.72
70851;DHT22;58475;49.662;9.636;2023-11-21T07:41:10;9.41;95.89
70851;DHT22;58475;49.662;9.636;2023-11-21T07:43:36;9.31;96.30
70851;DHT22;58475;49.662;9.636;2023-11-21T07:46:02;9.38;96.51
70851;DHT22;58475;49.662;9.636;2023-11-21T07:48:31;9.46;95.98
70851;DHT22;58475;49.662;9.636;2023-11-21T07:50:57;9.44;95.83
70851;DHT22;58475;49.662;9.636;2023-11-21T07:53:26;9.45;95.87
70851;DHT22;58475;49.662;9.636;2023-11-21T07:56:04;9.42;96.38
70851;DHT22;58475;49.662;9.636;2023-11-21T07:58:30;9.39;96.56
70851;DHT22;58475;49.662;9.636;2023-11-21T08:00:56;9.38;96.31
70851;DHT22;58475;49.662;9.636;2023-11-21T08:03:21;9.27;96.76
70851;DHT22;58475;49.662;9.636;2023-11-21T08:05:47;9.27;96.92
70851;DHT22;58475;49.662;9.636;2023-11-21T08:08:12;9.31;96.85
70851;DHT22;58475;49.662;9.636;2023-11-21T08:10:38;9.28;97.03
70851;DHT22;58475;49.662;9.636;2023-11-21T08:13:04;9.28;97.20
70851;DHT22;58475;49.662;9.636;2023-11-21T08:15:30;9.46;96.96
70851;DHT22;58475;49.662;9.636;2023-11-21T08:17:57;9.53;96.47
70851;DHT22;58475;49.662;9.636;2023-11-21T08:20:24;9.59;96.50
70851;DHT22;58475;49.662;9.636;2023-11-21T08:22:50;9.53;96.79
70851;DHT22;58475;49.662;9.636;2023-11-21T08:25:17;9.59;96.93
70851;DHT22;58475;49.662;9.636;2023-11-21T08:27:45;9.59;96.80
70851;DHT22;58475;49.662;9.636;2023-11-21T08:30:11;9.62;96.84
70851;DHT22;58475;49.662;9.636;2023-11-21T08:32:37;9.53;96.87
70851;DHT22;58475;49.662;9.636;2023-11-21T08:35:02;9.58;96.92
70851;DHT22;58475;49.662;9.636;2023-11-21T08:37:28;9.65;96.74
70851;DHT22;58475;49.662;9.636;2023-11-21T08:39:58;9.68;96.45
70851;DHT22;58475;49.662;9.636;2023-11-21T08:42:24;9.66;96.66
70851;DHT22;58475;49.662;9.636;2023-11-21T08:44:49;9.79;96.37
70851;DHT22;58475;49.662;9.636;2023-11-21T08:47:15;9.83;96.14
70851;DHT22;58475;49.662;9.636;2023-11-21T08:49:40;9.82;96.14
70851;DHT22;58475;49.662;9.636;2023-11-21T08:52:05;9.83;96.23
70851;DHT22;58475;49.662;9.636;2023-11-21T08:54:32;9.97;95.78
70851;DHT22;58475;49.662;9.636;2023-11-21T08:56:57;10.10;95.25
70851;DHT22;58475;49.662;9.636;2023-11-21T08:59:26;9.99;95.31
70851;DHT22;58475;49.662;9.636;2023-11-21T09:01:51;10.13;95.34
70851;DHT22;58475;49.662;9.636;2023-11-21T09:04:17;10.41;94.52
70851;DHT22;58475;49.662;9.636;2023-11-21T09:06:42;10.33;94.23
70851;DHT22;58475;49.662;9.636;2023-11-21T09:09:08;10.30;94.29
70851;DHT22;58475;49.662;9.636;2023-11-21T09:11:36;10.18;94.90
70851;DHT22;58475;49.662;9.636;2023-11-21T09:14:01;10.18;95.08
70851;DHT22;58475;49.662;9.636;2023-11-21T09:16:27;10.23;94.90
70851;DHT22;58475;49.662;9.636;2023-11-21T09:18:52;10.31;94.51
70851;DHT22;58475;49.662;9.636;2023-11-21T09:21:17;10.41;94.22
70851;DHT22;58475;49.662;9.636;2023-11-21T09:23:47;10.45;94.16
70851;DHT22;58475;49.662;9.636;2023-11-21T09:26:13;10.45;94.41
70851;DHT22;58475;49.662;9.636;2023-11-21T09:28:41;10.37;94.72
70851;DHT22;58475;49.662;9.636;2023-11-21T09:31:08;10.36;94.75
70851;DHT22;58475;49.662;9.636;2023-11-21T09:33:34;10.43;94.70
70851;DHT22;58475;49.662;9.636;2023-11-21T09:36:00;10.48;94.38
70851;DHT22;58475;49.662;9.636;2023-11-21T09:38:26;10.40;94.29
70851;DHT22;58475;49.662;9.636;2023-11-21T09:40:54;10.37;94.26
70851;DHT22;58475;49.662;9.636;2023-11-21T09:43:20;10.25;94.60
70851;DHT22;58475;49.662;9.636;2023-11-21T09:45:51;10.29;94.70
70851;DHT22;58475;49.662;9.636;2023-11-21T09:48:20;10.40;94.19
70851;DHT22;58475;49.662;9.636;2023-11-21T09:50:46;10.24;94.61
70851;DHT22;58475;49.662;9.636;2023-11-21T09:53:19;10.30;94.18
70851;DHT22;58475;49.662;9.636;2023-11-21T09:55:51;10.24;93.88
70851;DHT22;58475;49.662;9.636;2023-11-21T09:58:18;10.23;93.79
70851;DHT22;58475;49.662;9.636;2023-11-21T10:00:50;10.16;93.64
70851;DHT22;58475;49.662;9.636;2023-11-21T10:03:17;10.18;93.56
70851;DHT22;58475;49.662;9.636;2023-11-21T10:05:44;10.13;93.84
70851;DHT22;58475;49.662;9.636;2023-11-21T10:08:12;10.10;94.61
70851;DHT22;58475;49.662;9.636;2023-11-21T10:10:46;10.16;94.76
70851;DHT22;58475;49.662;9.636;2023-11-21T10:13:14;10.40;93.32
70851;DHT22;58475;49.662;9.636;2023-11-21T10:15:42;10.54;93.35
70851;DHT22;58475;49.662;9.636;2023-11-21T10:18:14;10.68;93.13
70851;DHT22;58475;49.662;9.636;2023-11-21T10:20:40;10.83;92.81
70851;DHT22;58475;49.662;9.636;2023-11-21T10:23:06;11.01;92.54
70851;DHT22;58475;49.662;9.636;2023-11-21T10:25:36;10.99;92.37
70851;DHT22;58475;49.662;9.636;2023-11-21T10:28:03;11.15;91.58
70851;DHT22;58475;49.662;9.636;2023-11-21T10:30:38;11.27;90.02
70851;DHT22;58475;49.662;9.636;2023-11-21T10:33:07;11.24;90.68
70851;DHT22;58475;49.662;9.636;2023-11-21T10:35:49;11.36;90.30
70851;DHT22;58475;49.662;9.636;2023-11-21T10:38:19;11.36;89.32
70851;DHT22;58475;49.662;9.636;2023-11-21T10:40:48;11.20;89.57
70851;DHT22;58475;49.662;9.636;2023-11-21T10:43:14;10.86;90.94
70851;DHT22;58475;49.662;9.636;2023-11-21T10:45:41;10.82;91.42
70851;DHT22;58475;49.662;9.636;2023-11-21T10:48:13;10.95;91.00
70851;DHT22;58475;49.662;9.636;2023-11-21T10:50:43;11.22;90.57
70851;DHT22;58475;49.662;9.636;2023-11-21T10:53:09;11.30;89.54
70851;DHT22;58475;49.662;9.636;2023-11-21T10:55:37;11.33;90.17
70851;DHT22;58475;49.662;9.636;2023-11-21T10:58:04;11.22;89.92
70851;DHT22;58475;49.662;9.636;2023-11-21T11:00:35;11.15;90.69
70851;DHT22;58475;49.662;9.636;2023-11-21T11:03:03;11.20;90.05
70851;DHT22;58475;49.662;9.636;2023-11-21T11:05:29;11.12;90.71
70851;DHT22;58475;49.662;9.636;2023-11-21T11:08:08;11.26;89.93
70851;DHT22;58475;49.662;9.636;2023-11-21T11:10:33;11.26;90.07
70851;DHT22;58475;49.662;9.636;2023-11-21T11:13:00;11.29;89.84
70851;DHT22;58475;49.662;9.636;2023-11-21T11:15:27;11.20;90.39
70851;DHT22;58475;49.662;9.636;2023-11-21T11:17:54;11.30;89.92
70851;DHT22;58475;49.662;9.636;2023-11-21T11:20:23;11.22;90.51
70851;DHT22;58475;49.662;9.636;2023-11-21T11:23:04;11.26;90.00
70851;DHT22;58475;49.662;9.636;2023-11-21T11:31:30;11.46;88.91
70851;DHT22;58475;49.662;9.636;2023-11-21T11:36:48;11.46;89.19
70851;DHT22;58475;49.662;9.636;2023-11-21T11:39:39;11.59;87.94
70851;DHT22;58475;49.662;9.636;2023-11-21T11:42:08;11.51;88.46
70851;DHT22;58475;49.662;9.636;2023-11-21T11:47:32;11.39;88.21
70851;DHT22;58475;49.662;9.636;2023-11-21T11:50:09;11.36;88.42
70851;DHT22;58475;49.662;9.636;2023-11-21T11:52:42;11.46;88.51
70851;DHT22;58475;49.662;9.636;2023-11-21T11:55:13;11.75;88.11
70851;DHT22;58475;49.662;9.636;2023-11-21T11:57:42;11.91;86.94
70851;DHT22;58475;49.662;9.636;2023-11-21T12:00:09;11.94;87.50
70851;DHT22;58475;49.662;9.636;2023-11-21T12:02:41;11.92;87.25
70851;DHT22;58475;49.662;9.636;2023-11-21T12:05:17;11.84;85.16
70851;DHT22;58475;49.662;9.636;2023-11-21T12:07:49;11.53;85.80
70851;DHT22;58475;49.662;9.636;2023-11-21T12:10:17;11.70;87.00
70851;DHT22;58475;49.662;9.636;2023-11-21T12:12:48;11.84;86.60
70851;DHT22;58475;49.662;9.636;2023-11-21T12:15:13;11.61;86.43
70851;DHT22;58475;49.662;9.636;2023-11-21T12:17:43;11.81;86.06
70851;DHT22;58475;49.662;9.636;2023-11-21T12:20:10;11.81;84.87
70851;DHT22;58475;49.662;9.636;2023-11-21T12:22:51;11.42;86.28
70851;DHT22;58475;49.662;9.636;2023-11-21T12:25:19;11.42;86.01
70851;DHT22;58475;49.662;9.636;2023-11-21T12:27:46;11.51;86.34
70851;DHT22;58475;49.662;9.636;2023-11-21T12:30:13;11.63;86.43
70851;DHT22;58475;49.662;9.636;2023-11-21T12:32:39;11.77;86.11
70851;DHT22;58475;49.662;9.636;2023-11-21T12:35:07;11.91;86.16
70851;DHT22;58475;49.662;9.636;2023-11-21T12:37:33;12.01;86.05
70851;DHT22;58475;49.662;9.636;2023-11-21T12:39:59;12.08;85.31
70851;DHT22;58475;49.662;9.636;2023-11-21T12:42:24;11.99;84.07
70851;DHT22;58475;49.662;9.636;2023-11-21T12:45:20;12.02;84.37
70851;DHT22;58475;49.662;9.636;2023-11-21T12:47:47;12.24;85.06
70851;DHT22;58475;49.662;9.636;2023-11-21T12:50:25;12.50;83.05
70851;DHT22;58475;49.662;9.636;2023-11-21T12:52:58;12.60;82.49
70851;DHT22;58475;49.662;9.636;2023-11-21T12:55:24;12.60;83.20
70851;DHT22;58475;49.662;9.636;2023-11-21T12:57:51;12.36;82.65
70851;DHT22;58475;49.662;9.636;2023-11-21T13:00:18;12.31;83.43
70851;DHT22;58475;49.662;9.636;2023-11-21T13:02:53;12.19;83.75
70851;DHT22;58475;49.662;9.636;2023-11-21T13:05:36;12.19;82.20
70851;DHT22;58475;49.662;9.636;2023-11-21T13:08:08;12.10;81.34
70851;DHT22;58475;49.662;9.636;2023-11-21T13:10:36;12.32;81.88
70851;DHT22;58475;49.662;9.636;2023-11-21T13:13:10;12.31;83.47
70851;DHT22;58475;49.662;9.636;2023-11-21T13:15:47;12.67;83.91
70851;DHT22;58475;49.662;9.636;2023-11-21T13:18:16;12.48;82.84
70851;DHT22;58475;49.662;9.636;2023-11-21T13:20:42;12.63;83.08
70851;DHT22;58475;49.662;9.636;2023-11-21T13:23:10;12.63;83.18
70851;DHT22;58475;49.662;9.636;2023-11-21T13:25:40;12.77;83.13
70851;DHT22;58475;49.662;9.636;2023-11-21T13:28:10;12.94;83.01
70851;DHT22;58475;49.662;9.636;2023-11-21T13:30:36;12.90;82.42
70851;DHT22;58475;49.662;9.636;2023-11-21T13:33:02;12.91;83.02
70851;DHT22;58475;49.662;9.636;2023-11-21T13:35:32;13.01;82.38
70851;DHT22;58475;49.662;9.636;2023-11-21T13:38:04;13.15;81.45
70851;DHT22;58475;49.662;9.636;2023-11-21T13:40:32;13.24;79.72
70851;DHT22;58475;49.662;9.636;2023-11-21T13:43:00;13.32;80.09
70851;DHT22;58475;49.662;9.636;2023-11-21T13:45:29;13.37;79.81
70851;DHT22;58475;49.662;9.636;2023-11-21T13:47:55;13.31;80.23
70851;DHT22;58475;49.662;9.636;2023-11-21T13:50:25;13.24;77.38
70851;DHT22;58475;49.662;9.636;2023-11-21T13:52:55;12.83;77.62
70851;DHT22;58475;49.662;9.636;2023-11-21T13:55:21;12.48;79.06
70851;DHT22;58475;49.662;9.636;2023-11-21T13:57:50;12.56;79.02
70851;DHT22;58475;49.662;9.636;2023-11-21T14:00:18;12.39;80.58
70851;DHT22;58475;49.662;9.636;2023-11-21T14:03:01;12.17;81.23
70851;DHT22;58475;49.662;9.636;2023-11-21T14:05:30;12.05;82.06
70851;DHT22;58475;49.662;9.636;2023-11-21T14:07:57;12.10;81.34
70851;DHT22;58475;49.662;9.636;2023-11-21T14:10:29;12.05;82.64
70851;DHT22;58475;49.662;9.636;2023-11-21T14:13:03;12.11;81.47
70851;DHT22;58475;49.662;9.636;2023-11-21T14:15:29;12.10;81.68
70851;DHT22;58475;49.662;9.636;2023-11-21T14:17:54;12.21;81.41
70851;DHT22;58475;49.662;9.636;2023-11-21T14:20:19;12.12;81.38
70851;DHT22;58475;49.662;9.636;2023-11-21T14:22:46;12.05;82.24
70851;DHT22;58475;49.662;9.636;2023-11-21T14:25:12;12.11;82.46
70851;DHT22;58475;49.662;9.636;2023-11-21T14:27:39;12.06;82.10
70851;DHT22;58475;49.662;9.636;2023-11-21T14:30:05;12.24;81.73
70851;DHT22;58475;49.662;9.636;2023-11-21T14:32:31;12.02;82.56
70851;DHT22;58475;49.662;9.636;2023-11-21T14:34:57;11.99;83.26
70851;DHT22;58475;49.662;9.636;2023-11-21T14:37:25;11.80;83.67
70851;DHT22;58475;49.662;9.636;2023-11-21T14:39:51;11.84;83.59
70851;DHT22;58475;49.662;9.636;2023-11-21T14:42:16;11.73;83.93
70851;DHT22;58475;49.662;9.636;2023-11-21T14:44:49;11.88;83.64
70851;DHT22;58475;49.662;9.636;2023-11-21T14:47:14;11.82;82.92
70851;DHT22;58475;49.662;9.636;2023-11-21T14:49:45;11.74;83.50
70851;DHT22;58475;49.662;9.636;2023-11-21T14:52:23;11.57;84.37
70851;DHT22;58475;49.662;9.636;2023-11-21T14:54:58;11.51;85.19
70851;DHT22;58475;49.662;9.636;2023-11-21T14:57:42;11.33;85.83
70851;DHT22;58475;49.662;9.636;2023-11-21T15:00:19;11.24;82.95
70851;DHT22;58475;49.662;9.636;2023-11-21T15:03:06;11.19;81.87
70851;DHT22;58475;49.662;9.636;2023-11-21T15:05:32;10.91;81.90
70851;DHT22;58475;49.662;9.636;2023-11-21T15:08:00;10.69;81.67
70851;DHT22;58475;49.662;9.636;2023-11-21T15:10:44;10.57;82.53
70851;DHT22;58475;49.662;9.636;2023-11-21T15:13:13;10.81;81.70
70851;DHT22;58475;49.662;9.636;2023-11-21T15:15:40;10.69;82.22
70851;DHT22;58475;49.662;9.636;2023-11-21T15:18:06;10.64;83.18
70851;DHT22;58475;49.662;9.636;2023-11-21T15:20:32;10.60;83.00
70851;DHT22;58475;49.662;9.636;2023-11-21T15:22:57;10.51;82.77
70851;DHT22;58475;49.662;9.636;2023-11-21T15:25:23;10.47;83.08
70851;DHT22;58475;49.662;9.636;2023-11-21T15:27:48;10.41;83.10
70851;DHT22;58475;49.662;9.636;2023-11-21T15:30:16;10.34;83.18
70851;DHT22;58475;49.662;9.636;2023-11-21T15:32:44;10.37;82.92
70851;DHT22;58475;49.662;9.636;2023-11-21T15:35:12;10.27;83.31
70851;DHT22;58475;49.662;9.636;2023-11-21T15:37:40;10.18;84.45
70851;DHT22;58475;49.662;9.636;2023-11-21T15:40:05;10.24;84.19
70851;DHT22;58475;49.662;9.636;2023-11-21T15:42:34;10.14;84.03
70851;DHT22;58475;49.662;9.636;2023-11-21T15:45:00;10.14;84.37
70851;DHT22;58475;49.662;9.636;2023-11-21T15:47:25;10.03;84.22
70851;DHT22;58475;49.662;9.636;2023-11-21T15:49:51;9.90;85.13
70851;DHT22;58475;49.662;9.636;2023-11-21T15:52:16;9.89;85.75
70851;DHT22;58475;49.662;9.636;2023-11-21T15:54:42;9.90;86.22